Terminal Aerodrome Forecast
Issued by NWS Duluth, MN

Home | Current Version | Previous Version | Text Only | Print | Product List | Glossary On
Versions: 1 2 3 4 5 6 7 8 9 10 11 12 13 14 15 16 17 18 19 20 21 22 23 24 25 26 27 28 29 30 31 32 33 34 35 36 37 38
000
FTUS43 KDLH 172152 AAC
TAFDLH
TAF AMD
KDLH 172152Z 1722/1818 32006KT 5SM BR VCSH OVC005
     FM180000 32006KT 5SM BR OVC007
     FM180500 34009KT P6SM SCT015 BKN035
     FM181500 33012G18KT P6SM SCT035=

USA.gov is the U.S. government's official web portal to all federal, state and local government web resources and services.